Time;durP1;ratioP1;P1;durP2;ratioP2;P2;SDS_P1;SDS_P2;PMS_P1;PMS_P2;Temp;Humidity;BMP_temperature;BMP_pressure;BME280_temperature;BME280_humidity;BME280_pressure;Samples;Min_cycle;Max_cycle;Signal;HPM_P1;HPM_P2
2021/03/19 00:00:42;;;;;;;45.33;19.05;;;;;;;21.72;13.91;98080.66;5054962;28;20086;-83
2021/03/19 00:03:08;;;;;;;46.08;19.60;;;;;;;21.96;13.80;98073.97;5063306;28;20538;-83
2021/03/19 00:05:34;;;;;;;43.53;17.20;;;;;;;22.21;13.80;98072.84;5054706;28;20045;-83
2021/03/19 00:08:00;;;;;;;39.63;16.75;;;;;;;22.33;13.58;98073.06;5066049;28;20396;-83
2021/03/19 00:10:29;;;;;;;39.35;17.13;;;;;;;22.40;13.57;98072.16;5062665;28;20044;-83
2021/03/19 00:12:58;;;;;;;32.33;14.07;;;;;;;21.83;14.14;98081.31;5055809;28;20120;-83
2021/03/19 00:15:26;;;;;;;33.30;13.55;;;;;;;21.57;14.22;98070.84;5070865;28;20041;-84
2021/03/19 00:17:54;;;;;;;35.83;14.93;;;;;;;21.65;14.29;98077.16;5065688;28;20373;-84
2021/03/19 00:20:22;;;;;;;34.45;14.68;;;;;;;21.71;14.04;98075.47;5062031;28;20493;-84
2021/03/19 00:22:48;;;;;;;34.30;13.75;;;;;;;21.82;14.03;98071.34;5056592;28;20029;-84
2021/03/19 00:25:15;;;;;;;38.22;15.80;;;;;;;21.91;13.80;98073.66;5058782;28;20033;-84
2021/03/19 00:27:41;;;;;;;38.67;16.65;;;;;;;22.01;13.84;98072.72;5053797;28;20025;-84
2021/03/19 00:30:11;;;;;;;42.60;19.90;;;;;;;22.07;13.77;98073.84;5061732;28;20037;-84
2021/03/19 00:32:38;;;;;;;42.15;17.60;;;;;;;22.13;13.76;98066.56;5067519;28;20064;-84
2021/03/19 00:35:06;;;;;;;46.95;20.35;;;;;;;21.64;14.02;98067.19;5043127;28;20032;-84
2021/03/19 00:37:32;;;;;;;41.63;17.52;;;;;;;21.60;14.08;98066.44;5061309;28;20029;-86
2021/03/19 00:39:59;;;;;;;40.95;17.80;;;;;;;21.43;14.26;98073.00;5023589;28;20059;-84
2021/03/19 00:42:25;;;;;;;35.70;15.77;;;;;;;21.34;14.49;98065.94;5066959;28;20404;-84
2021/03/19 00:44:51;;;;;;;41.88;18.17;;;;;;;21.62;14.25;98066.81;5067825;28;20039;-84
2021/03/19 00:47:17;;;;;;;42.42;18.13;;;;;;;21.76;14.10;98069.44;5057282;28;20055;-84
2021/03/19 00:49:43;;;;;;;38.22;15.57;;;;;;;21.95;13.73;98054.84;5060084;28;20024;-84
2021/03/19 00:52:09;;;;;;;41.38;18.15;;;;;;;22.03;13.69;98053.53;5060296;28;20040;-84
2021/03/19 00:54:35;;;;;;;42.58;19.15;;;;;;;22.00;13.85;98055.16;5052163;28;20079;-84
2021/03/19 00:57:01;;;;;;;38.35;16.52;;;;;;;21.96;13.88;98053.63;5052872;28;20098;-84
2021/03/19 00:59:27;;;;;;;35.28;15.13;;;;;;;21.86;13.83;98058.16;5042312;28;20116;-84
2021/03/19 01:01:54;;;;;;;39.65;17.40;;;;;;;21.98;13.79;98048.41;5065400;28;20433;-84
2021/03/19 01:04:20;;;;;;;40.45;16.73;;;;;;;22.16;13.58;98051.75;5055773;28;20427;-84
2021/03/19 01:06:46;;;;;;;38.85;17.83;;;;;;;22.16;13.87;98053.72;5067386;28;20389;-84
2021/03/19 01:09:12;;;;;;;51.15;18.40;;;;;;;22.23;13.79;98048.03;5062215;28;20028;-84
2021/03/19 01:11:38;;;;;;;42.67;17.98;;;;;;;22.28;13.82;98053.16;5058851;28;20378;-84
2021/03/19 01:14:04;;;;;;;40.97;16.92;;;;;;;22.32;13.69;98046.28;5058354;28;20078;-84
2021/03/19 01:16:31;;;;;;;38.60;16.05;;;;;;;22.34;13.87;98043.06;5056691;28;20033;-84
2021/03/19 01:18:57;;;;;;;37.30;16.65;;;;;;;22.44;13.83;98050.50;5058611;28;20032;-84
2021/03/19 01:21:23;;;;;;;37.85;15.82;;;;;;;22.40;13.75;98049.78;5063957;28;20037;-84
2021/03/19 01:23:49;;;;;;;37.90;16.75;;;;;;;22.51;13.64;98042.81;5064523;28;20036;-85
2021/03/19 01:26:16;;;;;;;40.15;16.10;;;;;;;22.41;13.61;98046.56;5060964;28;20041;-85
2021/03/19 01:28:44;;;;;;;34.55;15.20;;;;;;;22.26;13.82;98050.78;5038017;28;20021;-85
2021/03/19 01:31:10;;;;;;;41.35;17.70;;;;;;;22.16;14.06;98046.16;5054715;28;20060;-84
2021/03/19 01:51:06;;;;;;;37.88;17.50;;;;;;;22.46;13.50;98042.47;5055321;28;20165;-84
2021/03/19 01:54:10;;;;;;;43.40;17.83;;;;;;;22.50;13.60;98041.22;5020038;28;20554;-83
2021/03/19 01:57:13;;;;;;;43.10;18.35;;;;;;;22.57;13.45;98046.69;5049955;28;20048;-83
2021/03/19 02:00:17;;;;;;;47.03;19.70;;;;;;;22.17;13.76;98041.34;5057721;28;20573;-83
2021/03/19 02:03:20;;;;;;;41.75;18.35;;;;;;;21.85;14.15;98048.16;5035902;28;20045;-83
2021/03/19 02:06:23;;;;;;;44.88;18.38;;;;;;;21.72;14.01;98040.75;5050247;28;20107;-83
2021/03/19 02:09:27;;;;;;;42.38;18.02;;;;;;;21.74;13.82;98043.91;5051223;28;20119;-83
2021/03/19 02:12:30;;;;;;;46.20;20.02;;;;;;;21.65;13.92;98047.22;5079194;28;20530;-83
2021/03/19 02:15:34;;;;;;;39.35;17.83;;;;;;;20.83;14.77;98056.84;5079028;28;20040;-83
2021/03/19 02:18:37;;;;;;;41.45;17.67;;;;;;;20.39;14.73;98054.84;5072932;28;20446;-83
2021/03/19 02:21:41;;;;;;;39.92;17.77;;;;;;;20.61;14.82;98047.88;5054032;28;20043;-83
2021/03/19 02:24:44;;;;;;;50.70;20.08;;;;;;;20.67;14.89;98046.25;5073849;28;20032;-83
2021/03/19 02:27:47;;;;;;;45.35;19.08;;;;;;;20.54;14.44;98045.94;5074046;28;20036;-83
2021/03/19 02:30:51;;;;;;;36.88;15.73;;;;;;;20.67;14.33;98051.81;5053252;28;20043;-84
2021/03/19 02:33:17;;;;;;;47.38;17.88;;;;;;;21.05;13.95;98045.09;5067950;28;20035;-82
2021/03/19 02:35:57;;;;;;;42.13;16.90;;;;;;;20.86;13.98;98048.47;5077223;28;20036;-83
2021/03/19 02:38:24;;;;;;;40.53;18.07;;;;;;;20.65;14.07;98054.25;5062625;28;20052;-84
2021/03/19 02:40:52;;;;;;;39.05;16.63;;;;;;;20.69;14.28;98046.63;5073582;28;20036;-84
2021/03/19 02:43:21;;;;;;;49.05;19.70;;;;;;;20.61;14.35;98051.47;5070918;28;20032;-83
2021/03/19 02:45:47;;;;;;;40.65;17.25;;;;;;;20.37;14.52;98046.91;5073552;28;20511;-83
2021/03/19 02:48:14;;;;;;;42.78;18.27;;;;;;;20.25;14.59;98049.38;5058641;28;20036;-84
2021/03/19 02:50:41;;;;;;;36.67;15.05;;;;;;;20.22;14.69;98052.97;5083352;28;20043;-84
2021/03/19 02:53:34;;;;;;;31.25;14.30;;;;;;;19.85;14.94;98045.22;5074904;28;20033;-84
2021/03/19 02:56:03;;;;;;;43.88;15.35;;;;;;;20.14;14.49;98054.19;5074628;28;20052;-83
2021/03/19 02:58:29;;;;;;;34.13;15.07;;;;;;;20.33;14.27;98048.09;5068371;28;20074;-84
2021/03/19 03:00:55;;;;;;;39.10;15.60;;;;;;;20.41;14.28;98053.22;5070407;28;20441;-84
2021/03/19 03:03:21;;;;;;;36.10;17.25;;;;;;;20.56;14.21;98056.72;5061980;28;20035;-84
2021/03/19 03:05:48;;;;;;;35.67;14.48;;;;;;;20.66;14.05;98058.59;5077232;28;20028;-83
2021/03/19 03:08:17;;;;;;;39.72;18.45;;;;;;;20.54;14.17;98062.69;5081841;28;20036;-84
2021/03/19 03:10:44;;;;;;;39.08;17.88;;;;;;;20.30;14.78;98068.47;5069817;28;20064;-84
2021/03/19 03:13:11;;;;;;;34.85;15.15;;;;;;;19.83;15.07;98062.34;5073699;28;20036;-84
2021/03/19 03:15:39;;;;;;;38.63;16.45;;;;;;;19.81;14.94;98064.72;5074411;28;20028;-84
2021/03/19 03:18:06;;;;;;;38.22;16.20;;;;;;;20.08;14.83;98061.38;5073847;28;20032;-84
2021/03/19 03:20:36;;;;;;;47.45;20.17;;;;;;;20.37;14.98;98063.63;5072732;28;20029;-84
2021/03/19 03:23:04;;;;;;;44.67;19.13;;;;;;;20.73;14.28;98061.31;5073719;28;20037;-83
2021/03/19 03:25:30;;;;;;;44.42;19.88;;;;;;;20.89;14.07;98067.16;5072918;28;20029;-83
2021/03/19 03:27:56;;;;;;;35.53;16.67;;;;;;;20.95;13.74;98064.72;5072174;28;20035;-83
2021/03/19 03:30:35;;;;;;;49.17;19.00;;;;;;;20.49;14.16;98065.13;5073143;28;20374;-83
2021/03/19 03:33:03;;;;;;;46.90;19.48;;;;;;;20.26;14.29;98062.88;5073652;28;20182;-84
2021/03/19 03:35:29;;;;;;;33.78;14.88;;;;;;;20.33;14.37;98068.41;5073208;28;20024;-83
2021/03/19 03:37:56;;;;;;;39.33;14.90;;;;;;;20.41;14.56;98058.81;5072235;28;20377;-84
2021/03/19 03:40:27;;;;;;;43.70;17.27;;;;;;;19.38;15.06;98068.09;5064414;28;20029;-84
2021/03/19 03:42:54;;;;;;;49.38;18.38;;;;;;;19.30;14.93;98065.28;5069094;28;20404;-83
2021/03/19 03:45:20;;;;;;;45.53;19.27;;;;;;;19.52;14.96;98070.81;5072542;28;20056;-83
2021/03/19 03:47:47;;;;;;;47.58;18.25;;;;;;;19.78;14.80;98062.75;5072765;28;20032;-84
2021/03/19 03:50:17;;;;;;;42.83;17.58;;;;;;;19.94;14.78;98065.84;5069270;28;20032;-84
2021/03/19 03:52:43;;;;;;;52.85;19.80;;;;;;;20.08;14.64;98066.97;5066421;28;20044;-84
2021/03/19 03:55:10;;;;;;;39.45;14.80;;;;;;;20.09;14.35;98066.56;5070768;28;20035;-84
2021/03/19 03:57:36;;;;;;;31.02;14.57;;;;;;;20.08;14.27;98069.75;5063374;28;20487;-84
2021/03/19 04:00:09;;;;;;;39.47;15.63;;;;;;;20.17;14.32;98065.31;5070895;28;20090;-84
2021/03/19 04:02:36;;;;;;;40.28;16.13;;;;;;;20.19;14.57;98060.13;5071380;28;20115;-84
2021/03/19 04:05:04;;;;;;;38.65;14.77;;;;;;;20.26;14.13;98059.31;5069259;28;20103;-84
2021/03/19 04:07:30;;;;;;;39.70;17.33;;;;;;;20.30;14.08;98058.09;5073117;28;20083;-84
2021/03/19 04:09:56;;;;;;;43.38;17.52;;;;;;;19.88;14.37;98059.09;5072302;28;20033;-84
2021/03/19 04:12:23;;;;;;;44.60;18.08;;;;;;;19.54;14.78;98057.28;5053396;28;20044;-84
2021/03/19 04:14:49;;;;;;;43.78;17.95;;;;;;;19.57;14.82;98059.28;5045797;28;20032;-84
2021/03/19 04:17:43;;;;;;;41.55;16.60;;;;;;;19.53;15.37;98059.31;5052980;28;20102;-84
2021/03/19 04:20:11;;;;;;;44.83;16.40;;;;;;;19.65;14.61;98060.84;5044177;28;20049;-84
2021/03/19 04:22:39;;;;;;;42.05;16.38;;;;;;;19.72;14.79;98060.81;5051560;28;20097;-84
2021/03/19 04:25:05;;;;;;;48.10;19.52;;;;;;;19.39;15.13;98056.56;5047072;28;20033;-84
2021/03/19 04:27:35;;;;;;;43.55;18.80;;;;;;;19.43;15.09;98057.34;5053516;28;20098;-84
2021/03/19 04:30:01;;;;;;;38.20;17.10;;;;;;;19.70;14.90;98057.59;5052730;28;20037;-84
2021/03/19 04:32:27;;;;;;;45.75;16.85;;;;;;;20.04;14.48;98058.63;5045484;28;20064;-84
2021/03/19 04:34:53;;;;;;;44.35;17.80;;;;;;;20.11;14.15;98057.78;5051633;28;20041;-84
2021/03/19 04:37:20;;;;;;;46.53;18.23;;;;;;;20.18;14.65;98055.75;5050787;28;20055;-83
2021/03/19 04:39:49;;;;;;;46.15;17.98;;;;;;;20.18;14.75;98050.19;5020833;28;20404;-84
2021/03/19 04:42:16;;;;;;;54.90;22.17;;;;;;;20.35;14.22;98059.66;5053110;28;20146;-83
2021/03/19 04:44:45;;;;;;;48.63;20.90;;;;;;;19.91;14.51;98060.28;5051963;28;20205;-84
2021/03/19 04:47:13;;;;;;;42.15;16.33;;;;;;;20.11;14.41;98053.03;5053083;28;20102;-84
2021/03/19 04:49:40;;;;;;;43.30;17.30;;;;;;;20.11;14.64;98055.81;5051148;28;20032;-83
2021/03/19 04:52:07;;;;;;;52.22;20.10;;;;;;;20.24;14.25;98053.34;5048354;28;20031;-83
2021/03/19 04:54:33;;;;;;;45.10;18.42;;;;;;;20.44;14.25;98055.19;5023662;28;20397;-83
2021/03/19 04:57:00;;;;;;;36.28;16.55;;;;;;;20.06;14.36;98063.78;5051173;28;20029;-82
2021/03/19 04:59:27;;;;;;;43.65;16.25;;;;;;;20.05;14.20;98059.44;5047178;28;20058;-83
2021/03/19 05:02:02;;;;;;;53.92;22.35;;;;;;;19.63;14.61;98060.44;5038459;28;20540;-83
2021/03/19 05:04:29;;;;;;;56.00;21.92;;;;;;;19.50;15.00;98064.88;5047498;28;20079;-83
2021/03/19 05:07:00;;;;;;;40.72;17.00;;;;;;;19.50;14.92;98067.66;5049844;28;20029;-83
2021/03/19 05:09:28;;;;;;;54.55;23.85;;;;;;;19.38;15.19;98063.31;5050197;28;20542;-84
2021/03/19 05:11:54;;;;;;;51.35;21.65;;;;;;;19.55;15.13;98068.03;5048729;28;20064;-83
2021/03/19 05:14:21;;;;;;;53.53;21.55;;;;;;;19.93;14.89;98069.03;5051510;28;20064;-83
2021/03/19 05:16:47;;;;;;;37.95;16.80;;;;;;;20.35;14.57;98071.59;5051309;28;20091;-83
2021/03/19 05:19:14;;;;;;;42.10;18.02;;;;;;;20.77;14.24;98069.69;5049927;28;20095;-83
2021/03/19 05:21:41;;;;;;;58.33;25.77;;;;;;;20.91;14.41;98072.34;5051604;28;20040;-83
2021/03/19 05:24:07;;;;;;;41.85;20.00;;;;;;;20.76;14.36;98077.25;5022921;28;20083;-82
2021/03/19 05:26:33;;;;;;;47.78;20.55;;;;;;;21.01;14.30;98075.03;5040996;28;20025;-82
2021/03/19 05:28:59;;;;;;;47.10;20.95;;;;;;;21.30;14.16;98072.78;5050954;28;20578;-83
2021/03/19 05:31:25;;;;;;;46.67;21.23;;;;;;;21.25;14.11;98073.22;5047246;28;20040;-82
2021/03/19 05:33:54;;;;;;;45.30;19.83;;;;;;;21.06;14.41;98068.22;5048361;28;20087;-82
2021/03/19 05:36:30;;;;;;;49.15;20.23;;;;;;;21.41;14.25;98075.44;5050855;28;20052;-82
2021/03/19 05:38:56;;;;;;;46.58;21.63;;;;;;;21.64;14.25;98072.75;5048124;28;20550;-83
2021/03/19 05:41:27;;;;;;;45.65;20.23;;;;;;;20.96;14.76;98083.03;5052807;28;20036;-83
2021/03/19 05:43:59;;;;;;;46.50;19.77;;;;;;;20.61;14.96;98076.56;5050959;28;20508;-83
2021/03/19 05:46:36;;;;;;;43.92;19.65;;;;;;;20.51;15.12;98080.22;5050810;28;20033;-84
2021/03/19 05:49:08;;;;;;;45.83;21.88;;;;;;;21.00;15.01;98073.47;5050243;28;20497;-83
2021/03/19 05:52:03;;;;;;;52.83;22.40;;;;;;;21.54;14.66;98079.28;5050881;28;20029;-83
2021/03/19 05:54:36;;;;;;;60.88;25.73;;;;;;;21.81;14.55;98083.75;5042247;28;20094;-84
2021/03/19 05:57:08;;;;;;;53.65;26.52;;;;;;;22.07;14.64;98082.22;5032333;28;20087;-83
2021/03/19 05:59:37;;;;;;;52.65;25.50;;;;;;;22.42;14.49;98083.72;5029883;28;20033;-82
2021/03/19 06:02:27;;;;;;;61.40;27.35;;;;;;;22.58;14.43;98086.66;5049143;28;20033;-82
2021/03/19 06:05:02;;;;;;;50.40;23.33;;;;;;;22.84;14.43;98085.88;5051048;28;20029;-83
2021/03/19 06:07:46;;;;;;;51.13;24.33;;;;;;;22.47;15.08;98084.03;5050805;28;20056;-88
2021/03/19 06:10:25;;;;;;;50.40;22.67;;;;;;;21.96;15.40;98095.56;5045881;28;20051;-84
2021/03/19 06:13:05;;;;;;;51.25;24.50;;;;;;;22.17;15.45;98095.25;5047248;28;20493;-85
2021/03/19 06:15:44;;;;;;;49.88;20.48;;;;;;;22.57;15.06;98096.25;5051742;28;20034;-87
2021/03/19 06:18:43;;;;;;;49.47;22.23;;;;;;;22.96;14.83;98101.28;5051936;28;20025;-85
2021/03/19 06:21:10;;;;;;;57.50;26.45;;;;;;;23.46;14.60;98096.38;5053697;28;20047;-85
2021/03/19 06:23:38;;;;;;;63.97;26.35;;;;;;;23.62;14.43;98102.06;5055542;28;20037;-84
2021/03/19 06:26:16;;;;;;;62.65;28.05;;;;;;;23.65;14.38;98103.22;5053181;28;20124;-83
2021/03/19 06:28:47;;;;;;;51.88;23.98;;;;;;;23.66;14.63;98102.81;5055115;28;20087;-83
2021/03/19 06:31:14;;;;;;;52.42;25.25;;;;;;;22.98;15.10;98108.03;5059244;28;20032;-84
2021/03/19 06:33:40;;;;;;;47.92;24.13;;;;;;;22.62;15.81;98104.22;5065023;28;20462;-84
2021/03/19 06:36:21;;;;;;;47.13;23.13;;;;;;;22.74;15.97;98105.63;5059044;28;20392;-83
2021/03/19 06:38:47;;;;;;;48.90;23.58;;;;;;;23.01;15.67;98107.16;5060057;28;20554;-83
2021/03/19 06:41:32;;;;;;;49.05;22.02;;;;;;;23.39;15.55;98107.72;5053923;28;20538;-84
2021/03/19 06:44:17;;;;;;;51.38;25.80;;;;;;;23.70;15.04;98116.72;5054831;28;20056;-84
2021/03/19 06:46:48;;;;;;;50.83;23.08;;;;;;;23.90;14.71;98114.72;5049742;28;20454;-84
2021/03/19 06:49:15;;;;;;;46.42;22.63;;;;;;;23.89;14.87;98113.94;5043823;28;20029;-84
2021/03/19 06:51:45;;;;;;;40.42;20.30;;;;;;;23.90;14.83;98109.91;5048885;28;20099;-84
2021/03/19 06:54:26;;;;;;;47.70;22.52;;;;;;;23.57;15.19;98115.78;5056151;28;20033;-84
2021/03/19 06:57:13;;;;;;;50.38;22.63;;;;;;;22.28;16.27;98114.69;5051356;28;20151;-84
2021/03/19 06:59:42;;;;;;;53.28;22.92;;;;;;;20.61;17.81;98126.00;5054533;28;20093;-84
2021/03/19 07:02:39;;;;;;;59.00;27.58;;;;;;;19.82;19.02;98121.22;5054345;28;20035;-85
2021/03/19 07:05:31;;;;;;;69.03;31.38;;;;;;;19.27;19.84;98124.56;5051081;28;20036;-84
2021/03/19 07:08:22;;;;;;;63.65;29.85;;;;;;;18.80;19.97;98127.00;5003911;28;20045;-84
2021/03/19 07:10:57;;;;;;;74.53;35.72;;;;;;;19.04;20.05;98131.75;5051776;28;20528;-84
2021/03/19 07:13:40;;;;;;;60.55;29.05;;;;;;;19.24;19.85;98130.94;5053184;28;20037;-84
2021/03/19 07:16:11;;;;;;;78.32;35.25;;;;;;;19.34;19.67;98129.31;5046382;28;20025;-84
2021/03/19 07:18:40;;;;;;;;;;;;;;;19.09;20.13;98129.34;5050653;28;20083;-84
2021/03/19 07:21:41;;;;;;;74.88;36.13;;;;;;;19.36;19.96;98129.75;5042471;28;19992;-83
2021/03/19 07:24:25;;;;;;;61.88;30.25;;;;;;;18.90;20.00;98134.53;5044194;28;20033;-84
2021/03/19 07:26:59;;;;;;;56.53;27.23;;;;;;;18.42;20.42;98146.00;5031380;28;20029;-85
2021/03/19 07:29:54;;;;;;;45.22;23.15;;;;;;;17.90;21.34;98150.19;5045590;28;20039;-84
2021/03/19 07:32:31;;;;;;;52.13;26.48;;;;;;;18.19;20.91;98147.53;5040381;28;20067;-85
2021/03/19 07:35:37;;;;;;;66.43;30.42;;;;;;;19.01;19.92;98157.59;5041997;28;20038;-84
2021/03/19 07:38:21;;;;;;;66.47;31.67;;;;;;;20.23;18.77;98152.94;5037670;28;20488;-85
2021/03/19 07:41:18;;;;;;;65.90;30.85;;;;;;;20.19;18.95;98163.25;5041884;28;20519;-84
2021/03/19 07:44:21;;;;;;;59.17;27.42;;;;;;;20.18;18.72;98155.31;5049010;28;20045;-85
2021/03/19 07:47:08;;;;;;;76.10;33.92;;;;;;;20.01;18.97;98151.41;5041277;28;20044;-85
2021/03/19 07:49:54;;;;;;;79.13;35.47;;;;;;;19.80;19.20;98154.28;5047982;28;20496;-84
2021/03/19 07:52:45;;;;;;;61.97;31.80;;;;;;;20.12;18.93;98157.72;5041411;28;20066;-85
2021/03/19 07:55:21;;;;;;;74.40;35.38;;;;;;;19.49;19.70;98160.72;5034838;28;20044;-83
2021/03/19 07:58:07;;;;;;;75.32;35.13;;;;;;;20.46;19.09;98160.75;5040067;28;20028;-83
2021/03/19 08:00:38;;;;;;;72.47;33.65;;;;;;;21.08;17.88;98164.31;5031744;28;20025;-83
2021/03/19 08:03:27;;;;;;;63.40;29.50;;;;;;;20.87;18.10;98153.28;5042971;28;20047;-83
2021/03/19 08:05:54;;;;;;;74.22;32.80;;;;;;;20.95;18.37;98157.63;5036187;28;20033;-84
2021/03/19 08:08:42;;;;;;;76.72;35.70;;;;;;;19.29;19.73;98168.69;5040140;28;20057;-83
2021/03/19 08:11:37;;;;;;;68.88;34.20;;;;;;;19.60;19.59;98164.31;5046236;28;20392;-84
2021/03/19 08:14:25;;;;;;;68.05;32.85;;;;;;;19.28;20.21;98167.09;5036463;28;20516;-84
2021/03/19 08:17:10;;;;;;;55.10;27.27;;;;;;;20.19;18.80;98165.25;5042114;28;20037;-83
2021/03/19 08:19:53;;;;;;;56.10;26.75;;;;;;;19.99;18.96;98167.75;5041216;28;20037;-83
2021/03/19 08:22:40;;;;;;;59.25;27.13;;;;;;;20.50;18.22;98170.69;5038480;28;20034;-84
2021/03/19 08:25:21;;;;;;;55.38;28.00;;;;;;;21.16;17.95;98157.47;5049838;28;20037;-84
2021/03/19 08:27:59;;;;;;;56.83;28.20;;;;;;;21.75;17.21;98165.66;5048659;28;20033;-85
2021/03/19 08:30:53;;;;;;;64.88;30.73;;;;;;;22.30;17.48;98162.63;5046431;28;20036;-85
2021/03/19 08:33:47;;;;;;;61.28;29.67;;;;;;;22.51;16.53;98151.94;5041912;28;20072;-85
2021/03/19 08:36:34;;;;;;;57.25;27.52;;;;;;;22.68;16.27;98161.31;5041397;28;20030;-85
2021/03/19 08:39:10;;;;;;;51.75;24.75;;;;;;;22.97;16.27;98158.84;5017211;28;20040;-84
2021/03/19 08:41:41;;;;;;;49.10;22.52;;;;;;;23.22;15.48;98143.19;5039619;28;20428;-84
2021/03/19 08:44:13;;;;;;;44.53;21.23;;;;;;;23.28;16.04;98143.50;5039749;28;20041;-85
2021/03/19 08:46:48;;;;;;;44.75;21.33;;;;;;;23.56;15.85;98147.84;5038823;28;20045;-84
2021/03/19 08:49:25;;;;;;;44.22;21.00;;;;;;;23.93;15.71;98153.13;5036000;28;20536;-85
2021/03/19 08:51:54;;;;;;;46.83;21.63;;;;;;;24.12;15.77;98143.13;5038728;28;20044;-84
2021/03/19 08:54:24;;;;;;;45.70;20.95;;;;;;;24.31;15.73;98145.94;5025313;28;20104;-84
2021/03/19 08:56:52;;;;;;;42.67;21.70;;;;;;;24.54;15.53;98145.81;5045144;28;20033;-84
2021/03/19 08:59:33;;;;;;;47.85;23.70;;;;;;;24.54;15.20;98145.81;5047503;28;20029;-83
2021/03/19 09:02:03;;;;;;;41.53;20.88;;;;;;;24.71;15.28;98138.22;5046148;28;20091;-83
2021/03/19 09:04:56;;;;;;;40.03;19.15;;;;;;;24.76;14.03;98137.72;5042553;28;21663;-86
2021/03/19 09:07:36;;;;;;;34.65;18.02;;;;;;;24.57;14.64;98147.75;5034280;28;20509;-85
2021/03/19 09:10:34;;;;;;;36.05;16.13;;;;;;;24.53;15.23;98138.59;5044206;28;20040;-85
2021/03/19 09:13:07;;;;;;;36.47;16.92;;;;;;;24.50;14.63;98142.31;5040533;28;20037;-85
2021/03/19 09:15:39;;;;;;;32.05;16.23;;;;;;;24.20;14.90;98142.53;5031648;28;20037;-86
2021/03/19 09:18:26;;;;;;;30.75;15.15;;;;;;;23.91;15.66;98142.34;5039818;28;20071;-86
2021/03/19 09:21:19;;;;;;;27.85;15.15;;;;;;;24.43;15.20;98138.84;5050978;28;20048;-85
2021/03/19 09:24:03;;;;;;;28.40;15.65;;;;;;;24.36;15.94;98139.00;5065658;28;20037;-85
2021/03/19 09:26:45;;;;;;;29.65;15.55;;;;;;;24.11;15.62;98130.34;5051488;28;20445;-85
2021/03/19 09:29:16;;;;;;;26.17;12.43;;;;;;;25.03;15.90;98134.66;5042285;28;20095;-85
2021/03/19 09:31:52;;;;;;;22.10;11.03;;;;;;;25.64;14.75;98135.47;5058706;28;20090;-85
2021/03/19 09:34:41;;;;;;;19.27;11.23;;;;;;;25.57;14.61;98134.88;5041370;28;20025;-84
2021/03/19 09:37:35;;;;;;;16.20;9.20;;;;;;;25.26;14.18;98124.00;5049518;28;20033;-84
2021/03/19 09:40:07;;;;;;;13.23;8.52;;;;;;;24.78;15.11;98121.22;5062025;28;20484;-84
2021/03/19 09:42:41;;;;;;;13.73;8.25;;;;;;;24.88;14.39;98127.81;5059635;28;20033;-84
2021/03/19 09:45:07;;;;;;;15.80;8.38;;;;;;;22.93;15.98;98130.09;5049428;28;20034;-84
2021/03/19 09:47:33;;;;;;;15.75;8.35;;;;;;;24.28;15.08;98127.16;5045955;28;20033;-85
2021/03/19 09:50:31;;;;;;;14.73;7.63;;;;;;;24.88;14.10;98125.78;5034577;28;20512;-84
2021/03/19 09:53:07;;;;;;;10.38;6.32;;;;;;;24.38;13.23;98125.34;5047094;28;20417;-85
2021/03/19 09:55:40;;;;;;;11.10;6.20;;;;;;;23.47;14.29;98125.19;5035442;28;20531;-86
2021/03/19 09:58:22;;;;;;;9.85;5.63;;;;;;;23.31;14.10;98129.44;5048002;28;20065;-86
2021/03/19 10:00:56;;;;;;;12.77;6.00;;;;;;;23.40;14.41;98128.13;5032595;28;20041;-85
2021/03/19 10:03:23;;;;;;;15.77;8.27;;;;;;;20.84;15.85;98131.00;5059036;28;20041;-85
2021/03/19 10:05:49;;;;;;;12.18;6.47;;;;;;;22.65;15.09;98126.56;5050617;28;20044;-85
2021/03/19 10:08:30;;;;;;;9.52;5.28;;;;;;;23.31;14.57;98115.41;5048113;28;20489;-85
2021/03/19 10:11:05;;;;;;;8.43;5.15;;;;;;;24.62;13.84;98115.56;5048091;28;20044;-85
2021/03/19 10:13:32;;;;;;;12.10;7.38;;;;;;;25.06;12.60;98120.53;5039426;28;20120;-85
2021/03/19 10:15:59;;;;;;;8.30;5.35;;;;;;;24.95;12.98;98116.41;5040333;28;20026;-85
2021/03/19 10:18:35;;;;;;;7.80;5.03;;;;;;;25.06;13.33;98117.72;5045105;28;20041;-85
2021/03/19 10:21:07;;;;;;;12.00;6.60;;;;;;;22.96;14.33;98109.66;5044800;28;20017;-85
2021/03/19 10:23:40;;;;;;;12.38;7.15;;;;;;;22.26;14.67;98119.91;5040535;28;20473;-85
2021/03/19 10:26:19;;;;;;;11.05;5.75;;;;;;;23.04;14.74;98111.91;5044864;28;20029;-85
2021/03/19 10:28:51;;;;;;;8.20;5.40;;;;;;;23.79;14.31;98106.53;5055046;28;20021;-85
2021/03/19 10:31:24;;;;;;;8.05;4.97;;;;;;;23.46;13.57;98113.19;5055264;28;20029;-85
2021/03/19 10:33:53;;;;;;;8.60;4.82;;;;;;;24.32;13.18;98113.06;5027870;28;20025;-85
2021/03/19 10:36:40;;;;;;;6.45;4.50;;;;;;;23.10;12.90;98110.22;5037883;28;20040;-85
2021/03/19 10:39:22;;;;;;;9.60;5.45;;;;;;;21.66;13.97;98115.06;5044671;28;20033;-85
2021/03/19 10:42:01;;;;;;;6.38;3.83;;;;;;;22.91;12.41;98113.75;5038447;28;20035;-85
2021/03/19 10:45:09;;;;;;;5.40;3.10;;;;;;;23.50;12.07;98115.94;5043515;28;20037;-85
2021/03/19 10:48:20;;;;;;;7.38;4.05;;;;;;;23.91;12.13;98113.50;5040447;28;20065;-85
2021/03/19 10:50:59;;;;;;;6.65;4.53;;;;;;;22.98;12.67;98116.44;5046669;28;20036;-85
2021/03/19 10:53:53;;;;;;;10.48;6.30;;;;;;;19.59;14.25;98112.56;5049564;28;20076;-85
2021/03/19 10:56:20;;;;;;;5.60;3.65;;;;;;;19.47;15.27;98118.56;5040294;28;20072;-85
2021/03/19 10:58:53;;;;;;;6.68;3.90;;;;;;;20.70;15.02;98117.16;5044242;28;20049;-85
2021/03/19 11:01:31;;;;;;;6.22;4.25;;;;;;;17.96;14.14;98128.41;5039662;28;20060;-85
2021/03/19 11:03:58;;;;;;;7.82;4.00;;;;;;;18.82;15.39;98117.06;5045032;28;20449;-85
2021/03/19 11:06:38;;;;;;;5.30;3.60;;;;;;;18.04;15.48;98126.47;5044681;28;20100;-86
2021/03/19 11:09:08;;;;;;;11.07;6.15;;;;;;;18.03;16.63;98116.53;5044041;28;20075;-85
2021/03/19 11:11:35;;;;;;;9.50;5.18;;;;;;;19.65;15.24;98108.97;5056904;28;20044;-85
2021/03/19 11:14:04;;;;;;;13.82;6.22;;;;;;;20.84;15.72;98114.28;5043615;28;20123;-85
2021/03/19 11:16:37;;;;;;;20.90;11.57;;;;;;;18.31;18.80;98120.16;5018982;28;20021;-84
2021/03/19 11:19:07;;;;;;;16.83;9.77;;;;;;;18.93;17.25;98123.41;5046542;28;20550;-86
2021/03/19 11:21:34;;;;;;;14.93;8.70;;;;;;;20.50;17.12;98117.72;5042357;28;20029;-85
2021/03/19 11:24:32;;;;;;;15.40;8.27;;;;;;;20.58;16.03;98119.22;5043899;28;20037;-85
2021/03/19 11:27:13;;;;;;;15.93;8.13;;;;;;;20.99;15.86;98122.09;4960822;28;20077;-85
2021/03/19 11:29:41;;;;;;;;;;;;;;;18.56;17.51;98115.47;5042115;28;20034;-85
2021/03/19 11:32:10;;;;;;;23.15;11.77;;;;;;;16.45;20.04;98134.50;5046193;28;20323;-84
2021/03/19 11:34:44;;;;;;;21.65;11.88;;;;;;;14.13;22.73;98125.66;5041814;28;20370;-87
2021/03/19 11:37:33;;;;;;;22.60;12.30;;;;;;;13.71;23.23;98131.16;5045910;28;20037;-85
2021/03/19 11:40:03;;;;;;;21.02;11.60;;;;;;;13.72;23.30;98130.78;5048183;28;20021;-87
2021/03/19 11:42:40;;;;;;;16.77;10.15;;;;;;;16.69;20.91;98127.63;5041298;28;20029;-84
2021/03/19 11:45:09;;;;;;;19.20;10.25;;;;;;;16.60;20.14;98127.16;5037958;28;20413;-84
2021/03/19 11:47:59;;;;;;;14.20;8.27;;;;;;;18.94;18.11;98127.78;5040472;28;20103;-84
2021/03/19 11:50:32;;;;;;;31.73;14.93;;;;;;;14.18;24.65;98150.19;5040149;28;20393;-86
2021/03/19 11:53:02;;;;;;;27.55;13.25;;;;;;;13.60;26.65;98138.41;5028421;28;20032;-87
2021/03/19 11:55:28;;;;;;;22.60;12.88;;;;;;;15.00;24.79;98142.97;5036660;28;20039;-86
2021/03/19 11:57:55;;;;;;;24.55;11.43;;;;;;;16.29;22.94;98141.47;5042024;28;20116;-85
2021/03/19 12:00:25;;;;;;;30.73;13.82;;;;;;;14.07;25.25;98143.69;5031281;28;20056;-83
2021/03/19 12:02:54;;;;;;;25.17;13.23;;;;;;;14.98;24.65;98138.97;5043044;28;20068;-83
2021/03/19 12:05:21;;;;;;;19.25;10.38;;;;;;;15.27;24.40;98143.75;5047016;28;20373;-83
2021/03/19 12:07:48;;;;;;;24.17;12.85;;;;;;;15.07;24.96;98137.53;5037703;28;20080;-84
2021/03/19 12:10:16;;;;;;;23.50;12.27;;;;;;;15.10;24.67;98138.75;5041984;28;20053;-84
2021/03/19 12:12:42;;;;;;;22.40;11.68;;;;;;;14.77;25.29;98146.94;5038551;28;20025;-84